createdAt,value
2023-04-11T00:01:37.682Z,65.28
2023-04-11T00:04:11.937Z,59.33
2023-04-11T00:06:39.186Z,60.38
2023-04-11T00:09:07.655Z,48.25
2023-04-11T00:11:34.668Z,41.75
2023-04-11T00:14:05.855Z,47.10
2023-04-11T00:16:36.103Z,50.08
2023-04-11T00:19:07.686Z,58.97
2023-04-11T00:21:35.944Z,63.30
2023-04-11T00:24:03.138Z,57.90
2023-04-11T00:26:30.634Z,74.35
2023-04-11T00:28:57.977Z,71.65
2023-04-11T00:31:25.815Z,99.70
2023-04-11T00:33:53.509Z,84.72
2023-04-11T00:36:21.165Z,80.75
2023-04-11T00:38:50.539Z,64.22
2023-04-11T00:41:19.895Z,60.53
2023-04-11T00:43:47.613Z,63.83
2023-04-11T00:46:15.241Z,63.28
2023-04-11T00:48:43.301Z,56.60
2023-04-11T00:51:10.986Z,57.70
2023-04-11T00:53:39.303Z,57.42
2023-04-11T00:56:08.922Z,53.78
2023-04-11T00:58:38.344Z,55.33
2023-04-11T01:03:48.674Z,55.83
2023-04-11T01:06:21.040Z,64.00
2023-04-11T01:08:50.481Z,57.80
2023-04-11T01:11:20.421Z,66.45
2023-04-11T01:13:54.343Z,70.88
2023-04-11T01:16:22.054Z,73.28
2023-04-11T01:18:50.153Z,86.97
2023-04-11T01:21:19.934Z,81.22
2023-04-11T01:23:49.169Z,78.50
2023-04-11T01:26:16.628Z,69.72
2023-04-11T01:28:43.990Z,87.18
2023-04-11T01:31:12.306Z,89.72
2023-04-11T01:33:41.590Z,87.70
2023-04-11T01:36:09.466Z,85.88
2023-04-11T01:38:36.736Z,74.75
2023-04-11T01:41:08.501Z,68.45
2023-04-11T01:43:36.093Z,87.00
2023-04-11T01:46:03.792Z,92.35
2023-04-11T01:48:34.663Z,88.75
2023-04-11T01:51:04.296Z,119.85
2023-04-11T01:53:33.993Z,133.10
2023-04-11T01:56:01.364Z,145.48
2023-04-11T01:58:28.820Z,126.13
2023-04-11T02:00:56.324Z,124.00
2023-04-11T02:03:23.669Z,132.27
2023-04-11T02:05:51.192Z,130.80
2023-04-11T02:08:18.769Z,124.38
2023-04-11T02:10:47.139Z,123.38
2023-04-11T02:13:14.784Z,144.43
2023-04-11T02:15:43.228Z,118.50
2023-04-11T02:18:16.402Z,101.72
2023-04-11T02:20:43.726Z,112.95
2023-04-11T02:23:11.412Z,128.85
2023-04-11T02:25:39.271Z,125.75
2023-04-11T02:28:08.081Z,103.88
2023-04-11T02:30:35.583Z,124.40
2023-04-11T02:33:04.677Z,135.55
2023-04-11T02:35:32.002Z,131.27
2023-04-11T02:37:59.734Z,130.07
2023-04-11T02:40:26.774Z,143.15
2023-04-11T02:42:55.380Z,127.35
2023-04-11T02:45:22.991Z,138.98
2023-04-11T02:47:50.396Z,134.27
2023-04-11T02:50:17.795Z,127.63
2023-04-11T02:52:49.637Z,138.60
2023-04-11T02:55:19.654Z,137.25
2023-04-11T02:57:46.777Z,139.27
2023-04-11T03:00:14.317Z,131.07
2023-04-11T03:02:41.963Z,140.63
2023-04-11T03:05:10.034Z,144.00
2023-04-11T03:07:38.712Z,146.95
2023-04-11T03:10:06.621Z,145.10
2023-04-11T03:12:34.031Z,143.98
2023-04-11T03:15:02.667Z,141.45
2023-04-11T03:17:31.035Z,135.02
2023-04-11T03:19:58.475Z,145.38
2023-04-11T03:22:26.255Z,142.95
2023-04-11T03:24:54.445Z,137.68
2023-04-11T03:27:23.897Z,144.38
2023-04-11T03:29:53.007Z,140.02
2023-04-11T03:32:21.517Z,148.25
2023-04-11T03:34:50.839Z,145.77
2023-04-11T03:37:18.939Z,144.02
2023-04-11T03:39:47.449Z,150.40
2023-04-11T03:42:14.863Z,147.23
2023-04-11T03:44:42.457Z,151.63
2023-04-11T03:47:09.829Z,144.20
2023-04-11T03:49:37.347Z,152.27
2023-04-11T03:52:07.716Z,129.73
2023-04-11T03:54:37.904Z,132.27
2023-04-11T03:57:05.258Z,136.40
2023-04-11T03:59:33.692Z,138.88
2023-04-11T04:02:01.161Z,133.80
2023-04-11T04:04:29.345Z,135.73
2023-04-11T04:06:57.182Z,136.15
2023-04-11T04:09:25.664Z,133.27
2023-04-11T04:11:53.309Z,125.68
2023-04-11T04:14:21.526Z,131.20
2023-04-11T04:16:49.491Z,127.05
2023-04-11T04:19:16.982Z,128.65
2023-04-11T04:21:46.160Z,131.60
2023-04-11T04:24:19.043Z,134.20
2023-04-11T04:26:50.326Z,132.52
2023-04-11T04:29:18.652Z,130.60
2023-04-11T04:31:50.943Z,133.63
2023-04-11T04:34:22.182Z,126.47
2023-04-11T04:36:49.757Z,126.93
2023-04-11T04:39:19.508Z,129.30
2023-04-11T04:41:49.946Z,132.63
2023-04-11T04:44:22.774Z,129.15
2023-04-11T04:46:59.380Z,121.05
2023-04-11T04:49:26.872Z,119.15
2023-04-11T04:51:54.387Z,127.07
2023-04-11T04:54:21.897Z,128.80
2023-04-11T04:56:55.868Z,130.48
2023-04-11T04:59:23.391Z,129.20
2023-04-11T05:01:53.984Z,129.43
2023-04-11T05:04:21.665Z,125.90
2023-04-11T05:06:49.141Z,126.72
2023-04-11T05:09:18.272Z,124.38
2023-04-11T05:11:45.949Z,118.50
2023-04-11T05:14:13.389Z,121.40
2023-04-11T05:16:42.580Z,123.75
2023-04-11T05:19:10.102Z,120.78
2023-04-11T05:21:43.276Z,116.47
2023-04-11T05:24:10.917Z,117.95
2023-04-11T05:26:38.316Z,118.63
2023-04-11T05:29:07.080Z,113.82
2023-04-11T05:31:34.213Z,115.32
2023-04-11T05:34:02.788Z,110.97
2023-04-11T05:36:30.402Z,114.35
2023-04-11T05:38:57.584Z,118.72
2023-04-11T05:41:25.269Z,122.03
2023-04-11T05:43:52.595Z,118.00
2023-04-11T05:46:19.920Z,120.30
2023-04-11T05:48:47.507Z,116.47
2023-04-11T05:51:14.899Z,115.97
2023-04-11T05:53:42.365Z,122.18
2023-04-11T05:56:10.054Z,115.78
2023-04-11T05:58:38.065Z,117.82
2023-04-11T06:01:07.721Z,107.05
2023-04-11T06:03:35.613Z,122.10
2023-04-11T06:06:03.189Z,115.80
2023-04-11T06:08:30.669Z,125.22
2023-04-11T06:11:00.334Z,119.55
2023-04-11T06:13:33.790Z,112.65
2023-04-11T06:16:07.805Z,107.68
2023-04-11T06:18:35.446Z,110.65
2023-04-11T06:21:05.008Z,110.07
2023-04-11T06:23:32.375Z,118.47
2023-04-11T06:25:59.799Z,115.53
2023-04-11T06:28:27.492Z,109.95
2023-04-11T06:30:54.750Z,107.93
2023-04-11T06:33:24.196Z,108.60
2023-04-11T06:35:51.845Z,102.78
2023-04-11T06:38:25.241Z,108.32
2023-04-11T06:40:55.037Z,124.43
2023-04-11T06:43:22.704Z,121.00
2023-04-11T06:45:50.234Z,128.80
2023-04-11T06:48:18.478Z,127.18
2023-04-11T06:50:46.312Z,138.07
2023-04-11T06:53:13.541Z,136.63
2023-04-11T06:55:41.072Z,127.70
2023-04-11T06:58:08.467Z,132.95
2023-04-11T07:00:36.472Z,129.43
2023-04-11T07:03:08.223Z,143.52
2023-04-11T07:05:38.291Z,136.18
2023-04-11T07:08:07.590Z,131.13
2023-04-11T07:10:34.996Z,123.75
2023-04-11T07:13:02.397Z,130.65
2023-04-11T07:15:29.577Z,117.90
2023-04-11T07:17:56.805Z,120.78
2023-04-11T07:20:31.388Z,123.18
2023-04-11T07:22:58.520Z,116.72
2023-04-11T07:25:33.973Z,115.00
2023-04-11T07:28:01.524Z,115.28
2023-04-11T07:30:30.386Z,104.25
2023-04-11T07:32:58.023Z,100.93
2023-04-11T07:35:25.596Z,95.80
2023-04-11T07:37:54.085Z,91.57
2023-04-11T07:40:21.410Z,90.72
2023-04-11T07:42:48.827Z,87.60
2023-04-11T07:45:16.369Z,102.13
2023-04-11T07:47:43.743Z,95.95
2023-04-11T07:50:11.676Z,86.55
2023-04-11T07:52:39.218Z,89.75
2023-04-11T07:55:06.979Z,90.68
2023-04-11T07:57:34.148Z,82.32
2023-04-11T08:00:01.564Z,79.10
2023-04-11T08:02:28.922Z,77.85
2023-04-11T08:04:57.472Z,66.50
2023-04-11T08:07:24.937Z,69.55
2023-04-11T08:09:52.443Z,64.95
2023-04-11T08:12:19.916Z,69.50
2023-04-11T08:14:47.390Z,72.80
2023-04-11T08:17:26.983Z,62.45
2023-04-11T08:20:02.068Z,69.43
2023-04-11T08:22:31.033Z,69.00
2023-04-11T08:24:58.433Z,71.82
2023-04-11T08:27:26.278Z,65.88
2023-04-11T08:29:53.514Z,60.33
2023-04-11T08:32:21.153Z,62.40
2023-04-11T08:35:00.802Z,61.30
2023-04-11T08:37:32.032Z,60.78
2023-04-11T08:39:59.428Z,62.78
2023-04-11T08:42:33.300Z,66.95
2023-04-11T08:45:04.388Z,65.40
2023-04-11T08:47:46.435Z,56.13
2023-04-11T08:50:14.788Z,56.80
2023-04-11T08:52:45.188Z,60.25
2023-04-11T08:55:13.158Z,59.83
2023-04-11T08:57:40.585Z,55.75
2023-04-11T09:00:19.486Z,54.00
2023-04-11T09:03:01.614Z,52.47
2023-04-11T09:05:30.105Z,57.58
2023-04-11T09:08:02.556Z,54.83
2023-04-11T09:10:29.718Z,53.28
2023-04-11T09:12:59.625Z,50.80
2023-04-11T09:15:32.171Z,49.88
2023-04-11T09:18:01.093Z,49.97
2023-04-11T09:20:32.063Z,50.85
2023-04-11T09:22:59.362Z,48.28
2023-04-11T09:25:26.910Z,47.55
2023-04-11T09:28:11.228Z,48.05
2023-04-11T09:30:38.687Z,35.90
2023-04-11T09:33:30.314Z,40.50
2023-04-11T09:35:58.572Z,43.30
2023-04-11T09:38:44.508Z,39.97
2023-04-11T09:41:12.949Z,42.67
2023-04-11T09:43:56.092Z,43.03
2023-04-11T09:46:24.230Z,38.58
2023-04-11T09:48:53.130Z,35.30
2023-04-11T09:51:35.267Z,38.15
2023-04-11T09:54:06.271Z,35.87
2023-04-11T09:56:36.792Z,38.15
2023-04-11T09:59:05.748Z,38.00
2023-04-11T10:01:39.672Z,37.33
2023-04-11T10:04:07.107Z,32.28
2023-04-11T10:06:48.467Z,34.65
2023-04-11T10:09:17.266Z,34.97
2023-04-11T10:11:46.374Z,37.97
2023-04-11T10:14:38.703Z,37.08
2023-04-11T10:17:24.298Z,34.53
2023-04-11T10:19:58.925Z,35.13
2023-04-11T10:22:41.918Z,32.78
2023-04-11T10:25:18.944Z,36.10
2023-04-11T10:27:53.968Z,34.38
2023-04-11T10:30:41.587Z,34.95
2023-04-11T10:33:17.822Z,36.63
2023-04-11T10:36:10.858Z,32.38
2023-04-11T10:38:48.779Z,35.05
2023-04-11T10:41:25.844Z,39.22
2023-04-11T10:44:05.111Z,31.15
2023-04-11T10:46:49.881Z,30.45
2023-04-11T10:49:40.775Z,33.00
2023-04-11T10:52:24.954Z,28.05
2023-04-11T10:54:54.318Z,32.88
2023-04-11T10:57:23.262Z,25.75
2023-04-11T10:59:50.857Z,27.63
2023-04-11T11:02:20.321Z,27.65
2023-04-11T11:04:50.226Z,23.38
2023-04-11T11:07:17.790Z,25.42
2023-04-11T11:09:52.986Z,23.85
2023-04-11T11:12:20.660Z,16.20
2023-04-11T11:14:48.126Z,17.67
2023-04-11T11:17:17.591Z,15.65
2023-04-11T11:19:48.119Z,16.02
2023-04-11T11:22:26.272Z,13.93
2023-04-11T11:24:53.822Z,13.40
2023-04-11T11:27:24.336Z,15.85
2023-04-11T11:29:53.326Z,15.70
2023-04-11T11:32:30.157Z,13.88
2023-04-11T11:34:59.155Z,15.27
2023-04-11T11:37:26.446Z,15.20
2023-04-11T11:39:53.989Z,13.55
2023-04-11T11:42:21.476Z,11.90
2023-04-11T11:44:48.787Z,11.75
2023-04-11T11:47:18.299Z,9.80
2023-04-11T11:49:46.661Z,11.32
2023-04-11T11:52:41.011Z,11.48
2023-04-11T11:55:29.796Z,13.32
2023-04-11T11:58:02.578Z,13.02
2023-04-11T12:00:32.824Z,19.40
2023-04-11T12:03:01.195Z,13.23
2023-04-11T12:05:32.373Z,15.10
2023-04-11T12:08:08.451Z,15.38
2023-04-11T12:10:42.706Z,15.15
2023-04-11T12:13:20.835Z,17.63
2023-04-11T12:15:56.469Z,17.88
2023-04-11T12:18:26.634Z,13.95
2023-04-11T12:20:54.936Z,22.00
2023-04-11T12:23:24.090Z,13.93
2023-04-11T12:25:51.775Z,20.27
2023-04-11T12:28:19.446Z,14.52
2023-04-11T12:30:46.990Z,16.58
2023-04-11T12:33:15.294Z,19.85
2023-04-11T12:35:42.799Z,18.13
2023-04-11T12:38:11.922Z,19.88
2023-04-11T12:41:13.967Z,16.00
2023-04-11T12:43:43.808Z,19.30
2023-04-11T12:46:12.032Z,16.02
2023-04-11T12:48:39.535Z,17.15
2023-04-11T12:51:07.038Z,19.92
2023-04-11T12:53:34.360Z,17.38
2023-04-11T12:56:02.007Z,14.65
2023-04-11T12:58:35.787Z,14.13
2023-04-11T13:03:32.122Z,17.45
2023-04-11T13:05:59.364Z,18.83
2023-04-11T13:08:27.632Z,22.67
2023-04-11T13:10:56.033Z,26.83
2023-04-11T13:13:25.084Z,24.77
2023-04-11T13:15:52.432Z,21.08
2023-04-11T13:18:19.819Z,25.13
2023-04-11T13:20:47.231Z,23.33
2023-04-11T13:23:16.643Z,26.88
2023-04-11T13:25:45.194Z,27.17
2023-04-11T13:28:12.878Z,38.42
2023-04-11T13:30:41.510Z,29.02
2023-04-11T13:33:09.097Z,34.50
2023-04-11T13:35:36.682Z,30.75
2023-04-11T13:38:05.488Z,59.78
2023-04-11T13:40:34.008Z,51.92
2023-04-11T13:43:03.769Z,49.95
2023-04-11T13:46:00.716Z,35.15
2023-04-11T13:48:28.140Z,35.83
2023-04-11T13:50:57.895Z,33.30
2023-04-11T13:53:26.273Z,36.38
2023-04-11T13:55:53.504Z,46.42
2023-04-11T13:58:21.374Z,43.63
2023-04-11T14:00:50.725Z,38.67
2023-04-11T14:03:18.940Z,15.57
2023-04-11T14:05:53.818Z,12.23
2023-04-11T14:08:22.151Z,9.07
2023-04-11T14:10:49.472Z,23.60
2023-04-11T14:13:17.071Z,22.23
2023-04-11T14:15:45.084Z,52.85
2023-04-11T14:18:13.552Z,34.63
2023-04-11T14:20:41.217Z,19.30
2023-04-11T14:23:11.352Z,19.13
2023-04-11T14:25:39.465Z,23.10
2023-04-11T14:28:08.397Z,9.52
2023-04-11T14:30:36.489Z,9.05
2023-04-11T14:33:04.020Z,21.50
2023-04-11T14:35:31.868Z,23.13
2023-04-11T14:37:59.433Z,13.98
2023-04-11T14:40:32.871Z,16.45
2023-04-11T14:43:00.548Z,20.98
2023-04-11T14:45:27.820Z,21.05
2023-04-11T14:47:56.925Z,10.50
2023-04-11T14:50:24.772Z,23.70
2023-04-11T14:52:55.305Z,12.10
2023-04-11T14:55:23.063Z,31.80
2023-04-11T14:57:53.799Z,34.50
2023-04-11T15:00:27.493Z,19.33
2023-04-11T15:02:56.562Z,19.92
2023-04-11T15:05:24.588Z,22.60
2023-04-11T15:07:53.417Z,11.35
2023-04-11T15:10:23.558Z,21.08
2023-04-11T15:12:51.923Z,21.08
2023-04-11T15:15:19.622Z,9.18
2023-04-11T15:18:11.085Z,120.88
2023-04-11T15:20:40.611Z,93.00
2023-04-11T15:23:08.067Z,67.50
2023-04-11T15:25:36.575Z,43.50
2023-04-11T15:28:06.258Z,56.13
2023-04-11T15:30:35.108Z,38.20
2023-04-11T15:33:03.099Z,26.45
2023-04-11T15:35:30.703Z,41.30
2023-04-11T15:38:00.762Z,69.10
2023-04-11T15:40:28.212Z,29.77
2023-04-11T15:42:57.491Z,33.90
2023-04-11T15:45:24.891Z,19.35
2023-04-11T15:47:52.428Z,23.17
2023-04-11T15:50:28.980Z,18.25
2023-04-11T15:52:57.859Z,19.73
2023-04-11T15:55:25.592Z,37.45
2023-04-11T15:57:53.075Z,53.92
2023-04-11T16:00:22.769Z,13.85
2023-04-11T16:02:50.722Z,12.73
2023-04-11T16:05:21.241Z,19.17
2023-04-11T16:07:49.058Z,16.88
2023-04-11T16:10:16.471Z,16.40
2023-04-11T16:12:50.255Z,10.43
2023-04-11T16:15:18.225Z,14.85
2023-04-11T16:17:46.778Z,10.73
2023-04-11T16:20:18.944Z,11.52
2023-04-11T16:22:47.550Z,9.98
2023-04-11T16:25:21.681Z,11.48
2023-04-11T16:27:51.656Z,21.58
2023-04-11T16:30:19.358Z,18.10
2023-04-11T16:32:48.779Z,20.08
2023-04-11T16:35:16.026Z,24.40
2023-04-11T16:37:44.515Z,20.85
2023-04-11T16:40:12.542Z,18.27
2023-04-11T16:42:40.361Z,17.45
2023-04-11T16:45:11.192Z,17.35
2023-04-11T16:47:39.585Z,16.77
2023-04-11T16:50:08.430Z,18.83
2023-04-11T16:52:35.802Z,24.73
2023-04-11T16:55:03.865Z,28.70
2023-04-11T16:57:38.994Z,30.60
2023-04-11T17:00:20.031Z,22.55
2023-04-11T17:02:47.408Z,28.63
2023-04-11T17:05:14.898Z,24.67
2023-04-11T17:07:48.416Z,20.02
2023-04-11T17:10:16.163Z,15.35
2023-04-11T17:12:43.414Z,17.85
2023-04-11T17:15:11.498Z,14.27
2023-04-11T17:17:45.089Z,13.68
2023-04-11T17:22:41.752Z,18.55
2023-04-11T17:25:10.434Z,19.92
2023-04-11T17:27:41.194Z,15.70
2023-04-11T17:30:12.546Z,19.38
2023-04-11T17:32:41.152Z,16.65
2023-04-11T17:35:08.739Z,19.02
2023-04-11T17:37:37.922Z,23.30
2023-04-11T17:40:12.111Z,24.95
2023-04-11T17:42:42.005Z,29.17
2023-04-11T17:45:17.848Z,22.33
2023-04-11T17:47:52.468Z,14.93
2023-04-11T17:50:20.490Z,10.10
2023-04-11T17:52:49.955Z,14.25
2023-04-11T17:55:19.283Z,18.45
2023-04-11T17:57:50.550Z,16.05
2023-04-11T18:00:23.864Z,12.00
2023-04-11T18:02:54.908Z,10.88
2023-04-11T18:05:25.190Z,13.60
2023-04-11T18:07:57.704Z,9.68
2023-04-11T18:10:31.820Z,10.38
2023-04-11T18:12:59.564Z,10.07
2023-04-11T18:15:28.341Z,8.32
2023-04-11T18:17:56.934Z,7.93
2023-04-11T18:20:24.245Z,9.30
2023-04-11T18:22:55.048Z,8.60
2023-04-11T18:25:24.132Z,10.43
2023-04-11T18:27:52.181Z,6.57
2023-04-11T18:30:19.539Z,8.20
2023-04-11T18:32:49.745Z,6.90
2023-04-11T18:35:17.617Z,7.32
2023-04-11T18:37:45.240Z,6.93
2023-04-11T18:40:14.499Z,8.30
2023-04-11T18:42:49.250Z,29.92
2023-04-11T18:45:23.720Z,27.20
2023-04-11T18:47:51.734Z,22.95
2023-04-11T18:50:27.613Z,14.07
2023-04-11T18:52:57.475Z,14.57
2023-04-11T18:55:29.892Z,10.02
2023-04-11T18:58:00.089Z,7.97
2023-04-11T19:00:35.752Z,14.18
2023-04-11T19:03:03.732Z,8.43
2023-04-11T19:05:32.373Z,8.10
2023-04-11T19:08:00.950Z,7.00
2023-04-11T19:10:28.707Z,10.18
2023-04-11T19:12:56.408Z,8.93
2023-04-11T19:15:26.129Z,8.23
2023-04-11T19:17:55.454Z,8.45
2023-04-11T19:20:27.399Z,13.05
2023-04-11T19:22:55.925Z,9.27
2023-04-11T19:25:24.071Z,9.27
2023-04-11T19:27:53.468Z,7.63
2023-04-11T19:30:23.682Z,10.60
2023-04-11T19:32:52.470Z,10.00
2023-04-11T19:35:28.415Z,12.30
2023-04-11T19:38:00.488Z,10.00
2023-04-11T19:40:31.038Z,10.20
2023-04-11T19:43:02.552Z,8.20
2023-04-11T19:45:32.509Z,11.38
2023-04-11T19:48:03.327Z,10.63
2023-04-11T19:50:34.958Z,34.63
2023-04-11T19:53:04.135Z,36.58
2023-04-11T19:55:32.253Z,75.20
2023-04-11T19:58:00.698Z,64.07
2023-04-11T20:00:35.394Z,37.03
2023-04-11T20:03:10.393Z,29.98
2023-04-11T20:05:38.946Z,29.45
2023-04-11T20:08:09.117Z,22.00
2023-04-11T20:10:45.639Z,17.00
2023-04-11T20:13:14.275Z,15.38
2023-04-11T20:15:42.253Z,11.80
2023-04-11T20:18:11.543Z,16.15
2023-04-11T20:20:41.280Z,12.15
2023-04-11T20:23:16.885Z,16.00
2023-04-11T20:25:45.093Z,11.77
2023-04-11T20:28:13.135Z,14.45
2023-04-11T20:30:41.647Z,10.48
2023-04-11T20:33:09.492Z,12.55
2023-04-11T20:35:38.590Z,9.32
2023-04-11T20:38:06.307Z,10.98
2023-04-11T20:40:34.283Z,8.65
2023-04-11T20:43:08.755Z,9.95
2023-04-11T20:45:40.104Z,10.13
2023-04-11T20:48:09.059Z,8.10
2023-04-11T20:50:37.938Z,8.27
2023-04-11T20:53:05.603Z,7.15
2023-04-11T20:55:33.700Z,8.82
2023-04-11T20:58:01.600Z,7.63
2023-04-11T21:00:28.710Z,8.10
2023-04-11T21:02:56.065Z,13.43
2023-04-11T21:05:25.888Z,6.60
2023-04-11T21:07:55.888Z,9.02
2023-04-11T21:10:30.334Z,7.40
2023-04-11T21:12:58.913Z,4.80
2023-04-11T21:15:26.523Z,3.75
2023-04-11T21:17:54.786Z,4.53
2023-04-11T21:20:22.807Z,4.68
2023-04-11T21:22:55.038Z,6.25
2023-04-11T21:25:24.185Z,3.85
2023-04-11T21:27:58.879Z,4.13
2023-04-11T21:30:26.308Z,4.45
2023-04-11T21:32:53.903Z,3.80
2023-04-11T21:35:22.422Z,5.35
2023-04-11T21:37:51.023Z,4.43
2023-04-11T21:40:20.262Z,6.10
2023-04-11T21:42:47.724Z,4.03
2023-04-11T21:45:15.861Z,3.88
2023-04-11T21:47:44.294Z,3.65
2023-04-11T21:50:11.828Z,5.88
2023-04-11T21:52:39.082Z,5.97
2023-04-11T21:55:09.084Z,3.78
2023-04-11T21:57:36.573Z,8.15
2023-04-11T22:00:05.439Z,6.65
2023-04-11T22:02:32.628Z,3.40
2023-04-11T22:05:06.296Z,4.30
2023-04-11T22:07:46.746Z,6.32
2023-04-11T22:10:14.348Z,5.60
2023-04-11T22:12:42.249Z,4.88
2023-04-11T22:15:12.865Z,5.78
2023-04-11T22:17:50.734Z,5.85
2023-04-11T22:20:18.853Z,5.60
2023-04-11T22:22:45.920Z,5.15
2023-04-11T22:25:15.046Z,5.88
2023-04-11T22:27:42.437Z,9.98
2023-04-11T22:30:11.410Z,8.82
2023-04-11T22:32:39.916Z,6.15
2023-04-11T22:35:09.604Z,7.68
2023-04-11T22:37:36.791Z,12.77
2023-04-11T22:40:06.233Z,9.52
2023-04-11T22:42:34.207Z,11.13
2023-04-11T22:45:01.700Z,7.15
2023-04-11T22:47:29.576Z,7.85
2023-04-11T22:49:58.113Z,7.25
2023-04-11T22:52:26.126Z,5.55
2023-04-11T22:54:55.202Z,5.80
2023-04-11T22:57:22.617Z,7.35
2023-04-11T22:59:50.171Z,9.43
2023-04-11T23:02:17.631Z,10.68
2023-04-11T23:04:45.405Z,8.88
2023-04-11T23:07:12.921Z,7.20
2023-04-11T23:09:40.418Z,8.95
2023-04-11T23:12:08.589Z,7.32
2023-04-11T23:14:36.801Z,8.75
2023-04-11T23:17:04.413Z,7.88
2023-04-11T23:19:34.430Z,7.82
2023-04-11T23:22:01.735Z,9.38
2023-04-11T23:24:29.312Z,10.20
2023-04-11T23:26:57.388Z,8.30
2023-04-11T23:29:24.851Z,6.32
2023-04-11T23:31:52.180Z,9.02
2023-04-11T23:34:21.274Z,20.23
2023-04-11T23:36:48.598Z,22.17
2023-04-11T23:39:16.897Z,19.00
2023-04-11T23:41:52.819Z,9.32
2023-04-11T23:44:20.127Z,7.78
2023-04-11T23:46:47.622Z,14.38
2023-04-11T23:49:15.091Z,16.77
2023-04-11T23:51:43.529Z,19.77
2023-04-11T23:54:11.045Z,15.55
2023-04-11T23:56:38.483Z,9.88
2023-04-11T23:59:06.052Z,9.38
